Time;durP1;ratioP1;P1;durP2;ratioP2;P2;SDS_P1;SDS_P2;PMS_P1;PMS_P2;Temp;Humidity;BMP_temperature;BMP_pressure;BME280_temperature;BME280_humidity;BME280_pressure;Samples;Min_cycle;Max_cycle;Signal;HPM_P1;HPM_P2
2023/09/27 00:02:04;;;;;;;2.63;2.43;;;22.80;98.00;;;;;;5054322;28;20455;-47
2023/09/27 00:04:31;;;;;;;3.50;2.23;;;22.70;98.00;;;;;;5055427;28;20460;-49
2023/09/27 00:06:58;;;;;;;4.23;3.00;;;22.70;98.00;;;;;;5056739;28;20975;-49
2023/09/27 00:09:25;;;;;;;2.10;1.90;;;22.70;97.90;;;;;;5054873;28;21834;-54
2023/09/27 00:11:52;;;;;;;3.17;2.87;;;22.70;97.90;;;;;;5053630;28;20463;-49
2023/09/27 00:14:20;;;;;;;2.43;2.23;;;22.70;97.90;;;;;;5054118;28;20464;-46
2023/09/27 00:16:49;;;;;;;3.00;2.07;;;22.70;97.90;;;;;;5053382;28;20457;-55
2023/09/27 00:19:16;;;;;;;3.40;2.13;;;22.70;97.90;;;;;;5051518;28;20472;-49
2023/09/27 00:21:43;;;;;;;2.77;2.50;;;22.70;97.90;;;;;;5057338;28;20460;-53
2023/09/27 00:24:09;;;;;;;2.27;2.07;;;22.70;97.90;;;;;;5056145;28;20456;-47
2023/09/27 00:26:36;;;;;;;2.50;2.10;;;22.60;97.90;;;;;;5050429;28;20458;-49
2023/09/27 00:29:03;;;;;;;2.37;2.17;;;22.60;97.90;;;;;;5050334;28;20982;-52
2023/09/27 00:31:30;;;;;;;2.50;2.00;;;22.60;97.90;;;;;;5053813;28;22336;-49
2023/09/27 00:33:58;;;;;;;2.57;2.23;;;22.60;97.90;;;;;;5049632;28;20452;-52
2023/09/27 00:36:24;;;;;;;2.40;2.20;;;22.60;97.90;;;;;;5059043;28;20461;-48
2023/09/27 00:38:51;;;;;;;2.93;2.40;;;22.60;97.90;;;;;;5055375;28;20460;-53
2023/09/27 00:41:18;;;;;;;2.20;2.00;;;22.50;97.80;;;;;;5056496;28;20987;-49
2023/09/27 00:43:44;;;;;;;1.80;1.67;;;22.50;97.80;;;;;;5056189;28;20468;-49
2023/09/27 00:46:14;;;;;;;2.40;2.20;;;22.50;97.80;;;;;;5054931;28;20456;-50
2023/09/27 00:48:42;;;;;;;2.37;2.17;;;22.50;97.90;;;;;;5054185;28;20916;-46
2023/09/27 00:51:10;;;;;;;2.53;2.33;;;22.50;97.90;;;;;;5055382;28;20789;-52
2023/09/27 00:53:38;;;;;;;2.30;2.10;;;22.50;97.90;;;;;;5057506;28;20460;-51
2023/09/27 00:56:06;;;;;;;2.67;2.20;;;22.50;97.90;;;;;;5058325;28;20456;-49
2023/09/27 00:58:34;;;;;;;2.53;2.30;;;22.40;97.80;;;;;;5055144;28;20778;-52
2023/09/27 01:01:01;;;;;;;2.33;2.13;;;22.40;97.90;;;;;;5054798;28;20944;-53
2023/09/27 01:03:28;;;;;;;2.53;2.33;;;22.40;97.80;;;;;;5057251;28;20467;-55
2023/09/27 01:05:55;;;;;;;2.27;2.07;;;22.40;97.90;;;;;;5055215;28;20453;-49
2023/09/27 01:08:23;;;;;;;2.83;2.63;;;22.40;97.80;;;;;;5054249;28;20463;-48
2023/09/27 01:10:50;;;;;;;2.57;2.37;;;22.40;97.90;;;;;;5057693;28;21754;-54
2023/09/27 01:13:17;;;;;;;2.57;2.37;;;22.40;97.90;;;;;;5053830;28;21092;-51
2023/09/27 01:15:43;;;;;;;2.30;2.10;;;22.40;98.20;;;;;;5056339;28;20455;-52
2023/09/27 01:18:10;;;;;;;2.83;2.43;;;22.30;97.80;;;;;;5050943;28;20970;-53
2023/09/27 01:20:37;;;;;;;2.40;2.20;;;22.30;97.80;;;;;;5055376;28;20459;-49
2023/09/27 01:23:06;;;;;;;2.17;1.97;;;22.30;97.80;;;;;;5053278;28;20478;-49
2023/09/27 01:25:34;;;;;;;2.10;2.00;;;22.30;97.80;;;;;;5049344;28;20452;-52
2023/09/27 01:28:03;;;;;;;2.30;2.10;;;22.30;97.80;;;;;;5052831;28;20498;-50
2023/09/27 01:30:32;;;;;;;4.03;2.63;;;22.30;97.90;;;;;;5054537;28;20479;-49
2023/09/27 01:33:00;;;;;;;2.60;2.40;;;22.20;98.00;;;;;;5055446;28;20674;-53
2023/09/27 01:35:27;;;;;;;2.33;2.23;;;22.20;97.80;;;;;;5052017;28;20510;-51
2023/09/27 01:37:54;;;;;;;2.70;2.50;;;22.20;97.80;;;;;;5057062;28;20492;-54
2023/09/27 01:40:26;;;;;;;2.67;2.47;;;22.20;97.90;;;;;;5055033;28;20965;-48
2023/09/27 01:42:53;;;;;;;2.37;2.17;;;22.20;97.90;;;;;;5053569;28;20965;-53
2023/09/27 01:45:20;;;;;;;2.90;2.10;;;22.20;97.90;;;;;;5053543;28;20463;-47
2023/09/27 01:47:46;;;;;;;2.23;2.03;;;22.20;97.90;;;;;;5060359;28;20456;-50
2023/09/27 01:50:13;;;;;;;2.10;1.90;;;22.20;97.90;;;;;;5056862;28;20482;-47
2023/09/27 01:52:40;;;;;;;3.13;2.57;;;22.20;97.90;;;;;;5057786;28;20464;-54
2023/09/27 01:55:08;;;;;;;2.37;2.17;;;22.10;97.90;;;;;;5056219;28;20462;-50
2023/09/27 01:57:36;;;;;;;3.90;2.10;;;22.10;97.90;;;;;;5053310;28;20460;-50
2023/09/27 02:00:05;;;;;;;2.77;2.43;;;22.10;97.90;;;;;;5057889;28;20463;-57
2023/09/27 02:02:32;;;;;;;2.67;2.47;;;22.10;97.90;;;;;;5058694;28;20947;-49
2023/09/27 02:04:59;;;;;;;2.47;2.27;;;22.10;97.90;;;;;;5059786;28;20461;-55
2023/09/27 02:07:26;;;;;;;2.03;1.83;;;22.10;97.90;;;;;;5058190;28;20500;-51
2023/09/27 02:09:52;;;;;;;2.50;2.30;;;22.10;97.90;;;;;;5058116;28;20467;-52
2023/09/27 02:12:19;;;;;;;2.40;1.93;;;22.10;97.90;;;;;;5056793;28;20459;-53
2023/09/27 02:14:47;;;;;;;2.30;2.10;;;22.00;97.90;;;;;;5058552;28;20503;-53
2023/09/27 02:17:14;;;;;;;3.10;2.23;;;22.00;97.90;;;;;;5054926;28;20464;-54
2023/09/27 02:19:41;;;;;;;2.00;1.83;;;22.00;97.90;;;;;;5057194;28;20595;-51
2023/09/27 02:22:08;;;;;;;2.10;1.90;;;22.00;97.90;;;;;;5057367;28;20465;-48
2023/09/27 02:24:35;;;;;;;2.10;2.00;;;22.00;98.00;;;;;;5055526;28;20472;-52
2023/09/27 02:27:01;;;;;;;2.33;2.13;;;22.00;98.00;;;;;;5055603;28;20816;-49
2023/09/27 02:29:28;;;;;;;2.27;2.07;;;22.00;98.00;;;;;;5060568;28;20975;-52
2023/09/27 02:31:56;;;;;;;2.47;2.27;;;22.00;98.00;;;;;;5054984;28;20460;-53
2023/09/27 02:34:23;;;;;;;2.10;1.90;;;22.00;98.00;;;;;;5056568;28;20545;-56
2023/09/27 02:36:50;;;;;;;2.07;1.90;;;22.00;98.00;;;;;;5058328;28;20874;-51
2023/09/27 02:39:16;;;;;;;2.80;2.60;;;22.00;98.00;;;;;;5060205;28;20457;-51
2023/09/27 02:41:43;;;;;;;1.90;1.80;;;21.90;98.00;;;;;;5054781;28;20747;-57
2023/09/27 02:44:11;;;;;;;1.83;1.73;;;21.90;98.00;;;;;;5059584;28;21083;-58
2023/09/27 02:46:40;;;;;;;2.33;2.13;;;21.90;98.10;;;;;;5057808;28;20552;-53
2023/09/27 02:49:09;;;;;;;2.43;2.23;;;21.90;98.10;;;;;;5054799;28;20890;-59
2023/09/27 02:51:36;;;;;;;2.73;2.37;;;21.90;98.20;;;;;;5061190;28;20798;-56
2023/09/27 02:54:02;;;;;;;2.30;2.10;;;21.90;98.20;;;;;;5057570;28;20466;-53
2023/09/27 02:56:29;;;;;;;3.03;1.80;;;21.90;98.30;;;;;;5055094;28;20459;-55
2023/09/27 02:58:56;;;;;;;2.00;1.90;;;21.90;98.30;;;;;;5059378;28;20460;-54
2023/09/27 03:01:22;;;;;;;2.30;2.03;;;21.90;98.30;;;;;;5059803;28;20475;-54
2023/09/27 03:03:49;;;;;;;2.37;2.17;;;21.90;98.30;;;;;;5056266;28;20467;-56
2023/09/27 03:06:18;;;;;;;2.23;2.00;;;21.90;98.30;;;;;;5058706;28;20461;-58
2023/09/27 03:08:45;;;;;;;2.00;1.80;;;21.90;98.30;;;;;;5058435;28;20464;-54
2023/09/27 03:11:12;;;;;;;2.17;2.03;;;21.90;98.30;;;;;;5057647;28;20615;-54
2023/09/27 03:13:39;;;;;;;1.83;1.73;;;21.90;98.30;;;;;;5056971;28;20463;-50
2023/09/27 03:16:05;;;;;;;2.50;2.10;;;21.90;98.30;;;;;;5056146;28;20483;-51
2023/09/27 03:18:32;;;;;;;2.17;1.97;;;21.90;98.20;;;;;;5057534;28;20464;-53
2023/09/27 03:20:59;;;;;;;2.40;2.20;;;21.90;98.30;;;;;;5054750;28;20464;-54
2023/09/27 03:23:28;;;;;;;2.30;2.10;;;21.90;98.20;;;;;;5058373;28;20466;-51
2023/09/27 03:25:56;;;;;;;1.97;1.57;;;21.90;98.20;;;;;;5057115;28;20455;-54
2023/09/27 03:28:23;;;;;;;2.03;1.93;;;21.90;98.20;;;;;;5057856;28;20609;-52
2023/09/27 03:30:50;;;;;;;2.07;1.80;;;21.90;98.20;;;;;;5056148;28;20492;-51
2023/09/27 03:33:17;;;;;;;2.20;2.00;;;21.90;98.20;;;;;;5055165;28;20460;-50
2023/09/27 03:35:44;;;;;;;3.53;2.00;;;21.90;98.20;;;;;;5057254;28;20487;-59
2023/09/27 03:38:11;;;;;;;2.13;1.93;;;21.90;98.20;;;;;;5058368;28;20453;-52
2023/09/27 03:40:40;;;;;;;2.40;2.20;;;21.90;98.10;;;;;;5057981;28;22116;-51
2023/09/27 03:43:07;;;;;;;1.93;1.80;;;21.90;98.10;;;;;;5056828;28;20919;-58
2023/09/27 03:45:35;;;;;;;2.50;2.30;;;22.00;98.20;;;;;;5057224;28;20449;-57
2023/09/27 03:48:02;;;;;;;2.43;2.13;;;21.90;98.10;;;;;;5057919;28;20767;-55
2023/09/27 03:50:29;;;;;;;2.13;2.00;;;21.90;98.10;;;;;;5054319;28;20472;-51
2023/09/27 03:52:57;;;;;;;3.50;2.10;;;22.00;98.10;;;;;;5055710;28;20529;-53
2023/09/27 03:55:24;;;;;;;1.60;1.50;;;22.00;98.10;;;;;;5055861;28;20451;-54
2023/09/27 03:57:52;;;;;;;1.73;1.63;;;22.00;98.10;;;;;;5052916;28;20458;-50
2023/09/27 04:00:19;;;;;;;2.30;1.90;;;22.00;98.10;;;;;;5055231;28;20842;-52
2023/09/27 04:02:47;;;;;;;1.77;1.67;;;22.00;98.00;;;;;;5053331;28;20466;-52
2023/09/27 04:05:15;;;;;;;2.90;1.83;;;22.00;98.00;;;;;;5053493;28;20573;-56
2023/09/27 04:07:42;;;;;;;1.90;1.67;;;22.00;98.00;;;;;;5055652;28;20548;-54
2023/09/27 04:10:09;;;;;;;2.00;1.83;;;22.00;98.00;;;;;;5055483;28;20486;-53
2023/09/27 04:12:36;;;;;;;1.77;1.60;;;22.00;98.00;;;;;;5055130;28;20958;-55
2023/09/27 04:15:08;;;;;;;1.70;1.60;;;22.00;98.00;;;;;;5054054;28;20547;-58
2023/09/27 04:17:35;;;;;;;2.13;1.93;;;22.00;98.00;;;;;;5052386;28;20975;-51
2023/09/27 04:20:06;;;;;;;2.20;1.63;;;22.00;98.00;;;;;;5056796;28;20472;-53
2023/09/27 04:22:33;;;;;;;1.87;1.67;;;22.00;98.00;;;;;;5057151;28;20460;-57
2023/09/27 04:25:00;;;;;;;1.70;1.60;;;22.00;98.00;;;;;;5052860;28;20961;-51
2023/09/27 04:27:27;;;;;;;2.23;2.03;;;21.90;97.90;;;;;;5048896;28;20456;-60
2023/09/27 04:29:53;;;;;;;1.87;1.77;;;21.90;97.90;;;;;;5053691;28;20512;-49
2023/09/27 04:32:23;;;;;;;2.67;2.10;;;21.90;97.90;;;;;;5056032;28;20448;-53
2023/09/27 04:34:49;;;;;;;2.20;2.00;;;21.90;97.90;;;;;;5058934;28;20488;-51
2023/09/27 04:37:16;;;;;;;2.40;2.20;;;21.90;97.90;;;;;;5059140;28;21092;-58
2023/09/27 04:39:43;;;;;;;1.90;1.80;;;21.90;97.90;;;;;;5057188;28;20471;-59
2023/09/27 04:42:10;;;;;;;1.67;1.57;;;21.90;97.90;;;;;;5055344;28;20456;-50
2023/09/27 04:44:36;;;;;;;2.20;2.10;;;21.90;97.90;;;;;;5057058;28;20469;-48
2023/09/27 04:47:03;;;;;;;2.00;1.90;;;21.90;97.90;;;;;;5055580;28;20464;-53
2023/09/27 04:49:31;;;;;;;3.17;2.07;;;21.90;98.00;;;;;;5060504;28;22148;-49
2023/09/27 04:51:58;;;;;;;1.70;1.60;;;21.90;97.90;;;;;;5057493;28;20480;-48
2023/09/27 04:54:25;;;;;;;1.90;1.77;;;21.90;98.00;;;;;;5057176;28;20835;-52
2023/09/27 04:56:52;;;;;;;1.90;1.80;;;21.90;97.90;;;;;;5052091;28;20459;-55
2023/09/27 04:59:19;;;;;;;2.00;1.90;;;21.90;97.90;;;;;;5057538;28;22485;-53
2023/09/27 05:01:45;;;;;;;1.97;1.77;;;21.90;97.90;;;;;;5057380;28;20461;-53
2023/09/27 05:04:12;;;;;;;1.80;1.70;;;21.90;98.30;;;;;;5056264;28;20460;-53
2023/09/27 05:06:40;;;;;;;1.87;1.77;;;21.80;97.90;;;;;;5057749;28;20453;-56
2023/09/27 05:09:07;;;;;;;2.10;1.90;;;21.80;97.90;;;;;;5058272;28;20462;-55
2023/09/27 05:11:33;;;;;;;1.63;1.53;;;21.80;97.90;;;;;;5054385;28;20503;-52
2023/09/27 05:14:01;;;;;;;1.90;1.80;;;21.80;97.90;;;;;;5046511;28;20467;-52
2023/09/27 05:16:29;;;;;;;1.87;1.77;;;21.80;97.90;;;;;;5054746;28;20483;-51
2023/09/27 05:18:55;;;;;;;1.90;1.70;;;21.80;97.90;;;;;;5058510;28;20467;-54
2023/09/27 05:21:22;;;;;;;1.90;1.77;;;21.80;97.90;;;;;;5060073;28;20490;-51
2023/09/27 05:23:50;;;;;;;1.40;1.30;;;21.80;97.90;;;;;;5058807;28;20495;-49
2023/09/27 05:26:17;;;;;;;2.20;2.03;;;21.80;97.90;;;;;;5056298;28;20462;-53
2023/09/27 05:28:44;;;;;;;2.40;2.20;;;21.80;98.00;;;;;;5053704;28;20467;-59
2023/09/27 05:31:11;;;;;;;1.80;1.70;;;21.80;97.90;;;;;;5058932;28;20595;-56
2023/09/27 05:33:38;;;;;;;1.70;1.40;;;21.80;97.90;;;;;;5058425;28;21115;-50
2023/09/27 05:36:05;;;;;;;2.40;2.20;;;21.70;97.90;;;;;;5056809;28;20458;-55
2023/09/27 05:38:31;;;;;;;2.03;1.73;;;21.70;97.90;;;;;;5060129;28;20474;-51
2023/09/27 05:41:00;;;;;;;1.73;1.63;;;21.70;97.90;;;;;;5062222;28;20812;-53
2023/09/27 05:43:26;;;;;;;1.73;1.63;;;21.70;97.90;;;;;;5057092;28;20556;-51
2023/09/27 05:45:53;;;;;;;1.93;1.73;;;21.70;98.00;;;;;;5060218;28;20456;-57
2023/09/27 05:48:20;;;;;;;1.50;1.40;;;21.70;97.90;;;;;;5057272;28;20473;-52
2023/09/27 05:50:47;;;;;;;2.10;1.90;;;21.70;97.90;;;;;;5061998;28;20473;-59
2023/09/27 05:53:16;;;;;;;1.43;1.33;;;21.70;97.90;;;;;;5060043;28;20459;-53
2023/09/27 05:55:43;;;;;;;1.57;1.47;;;21.70;98.00;;;;;;5059213;28;20492;-53
2023/09/27 05:58:11;;;;;;;1.80;1.70;;;21.70;98.00;;;;;;5052740;28;20478;-53
2023/09/27 06:00:40;;;;;;;1.70;1.53;;;21.70;98.00;;;;;;5057775;28;20470;-59
2023/09/27 06:03:06;;;;;;;1.80;1.70;;;21.70;98.00;;;;;;5051143;28;20546;-55
2023/09/27 06:05:33;;;;;;;2.17;2.00;;;21.70;98.00;;;;;;5059655;28;20510;-53
2023/09/27 06:08:00;;;;;;;1.60;1.50;;;21.70;98.00;;;;;;5058447;28;20656;-55
2023/09/27 06:10:26;;;;;;;1.60;1.30;;;21.70;98.00;;;;;;5057605;28;20457;-53
2023/09/27 06:12:53;;;;;;;2.80;1.90;;;21.70;98.10;;;;;;5054226;28;20843;-55
2023/09/27 06:15:21;;;;;;;1.90;1.63;;;21.60;98.00;;;;;;5056793;28;20471;-51
2023/09/27 06:17:49;;;;;;;1.50;1.37;;;21.60;98.00;;;;;;5055530;28;20460;-53
2023/09/27 06:20:21;;;;;;;1.60;1.50;;;21.60;98.00;;;;;;5059272;28;20455;-49
2023/09/27 06:22:49;;;;;;;1.90;1.70;;;21.60;98.00;;;;;;5060824;28;20494;-56
2023/09/27 06:25:16;;;;;;;1.43;1.33;;;21.60;98.00;;;;;;5054333;28;20492;-51
2023/09/27 06:27:42;;;;;;;1.80;1.53;;;21.60;98.00;;;;;;5056181;28;20967;-47
2023/09/27 06:30:11;;;;;;;1.97;1.70;;;21.60;98.00;;;;;;5057100;28;20490;-52
2023/09/27 06:32:39;;;;;;;2.07;1.87;;;21.60;98.00;;;;;;5058779;28;20485;-58
2023/09/27 06:35:12;;;;;;;1.70;1.47;;;21.60;98.00;;;;;;5058492;28;20488;-52
2023/09/27 06:37:39;;;;;;;1.63;1.50;;;21.60;98.00;;;;;;5059752;28;20487;-48
2023/09/27 06:40:08;;;;;;;1.50;1.30;;;21.60;98.00;;;;;;5061114;28;21146;-54
2023/09/27 06:42:36;;;;;;;1.60;1.50;;;21.60;98.10;;;;;;5057419;28;20459;-53
2023/09/27 06:45:04;;;;;;;1.90;1.50;;;21.60;98.00;;;;;;5057798;28;20471;-55
2023/09/27 06:47:34;;;;;;;1.63;1.53;;;21.60;98.10;;;;;;5057053;28;20460;-54
2023/09/27 06:50:03;;;;;;;2.20;2.00;;;21.60;98.10;;;;;;5061275;28;20847;-46
2023/09/27 06:52:30;;;;;;;1.70;1.40;;;21.60;98.10;;;;;;5056111;28;20477;-51
2023/09/27 06:54:57;;;;;;;1.50;1.33;;;21.60;98.10;;;;;;5057449;28;20482;-53
2023/09/27 06:57:24;;;;;;;2.10;1.40;;;21.60;98.10;;;;;;5061453;28;20992;-53
2023/09/27 06:59:51;;;;;;;1.60;1.50;;;21.60;98.10;;;;;;5056363;28;20527;-53
2023/09/27 07:02:17;;;;;;;1.70;1.60;;;21.60;98.10;;;;;;5049699;28;20960;-58
2023/09/27 07:04:44;;;;;;;2.33;2.13;;;21.60;98.10;;;;;;5053261;28;20467;-49
2023/09/27 07:07:13;;;;;;;2.20;1.80;;;21.60;98.10;;;;;;5051041;28;20451;-51
2023/09/27 07:09:40;;;;;;;1.80;1.70;;;21.60;98.10;;;;;;5052555;28;20459;-48
2023/09/27 07:12:07;;;;;;;1.77;1.67;;;21.60;98.50;;;;;;5051654;28;20481;-56
2023/09/27 07:14:36;;;;;;;1.50;1.40;;;21.60;98.10;;;;;;5054835;28;20451;-50
2023/09/27 07:17:03;;;;;;;1.60;1.50;;;21.60;98.20;;;;;;5048430;28;20504;-54
2023/09/27 07:19:31;;;;;;;1.80;1.70;;;21.60;98.20;;;;;;5057822;28;20457;-55
2023/09/27 07:21:57;;;;;;;1.67;1.57;;;21.60;98.20;;;;;;5059853;28;20456;-56
2023/09/27 07:24:25;;;;;;;1.63;1.53;;;21.60;98.20;;;;;;5054044;28;20710;-49
2023/09/27 07:26:52;;;;;;;1.73;1.50;;;21.60;98.20;;;;;;5054503;28;21020;-57
2023/09/27 07:29:19;;;;;;;1.37;1.27;;;21.60;98.20;;;;;;5050299;28;20456;-55
2023/09/27 07:31:46;;;;;;;1.67;1.50;;;21.60;98.20;;;;;;5055036;28;20494;-54
2023/09/27 07:34:12;;;;;;;1.47;1.37;;;21.60;98.20;;;;;;5053706;28;20824;-56
2023/09/27 07:36:39;;;;;;;1.93;1.60;;;21.60;98.20;;;;;;5057286;28;21588;-47
2023/09/27 07:39:09;;;;;;;2.37;1.93;;;21.60;98.20;;;;;;5051944;28;20472;-51
2023/09/27 07:41:37;;;;;;;1.63;1.53;;;21.60;98.20;;;;;;5054269;28;20460;-48
2023/09/27 07:44:07;;;;;;;2.30;1.57;;;21.60;98.20;;;;;;5051237;28;20463;-59
2023/09/27 07:46:33;;;;;;;1.93;1.70;;;21.60;98.20;;;;;;5051508;28;20448;-53
2023/09/27 07:49:00;;;;;;;2.00;1.80;;;21.60;98.20;;;;;;5049098;28;20991;-55
2023/09/27 07:51:27;;;;;;;1.83;1.70;;;21.60;98.20;;;;;;5053616;28;21403;-53
2023/09/27 07:53:54;;;;;;;1.43;1.33;;;21.60;98.20;;;;;;5054543;28;20468;-48
2023/09/27 07:56:22;;;;;;;1.70;1.57;;;21.60;98.20;;;;;;5050894;28;20466;-56
2023/09/27 07:58:51;;;;;;;2.43;2.23;;;21.60;98.30;;;;;;5052357;28;20468;-56
2023/09/27 08:01:20;;;;;;;2.37;1.83;;;21.60;98.30;;;;;;5044036;28;20464;-49
2023/09/27 08:03:48;;;;;;;1.97;1.83;;;21.60;98.30;;;;;;5054619;28;20489;-49
2023/09/27 08:06:16;;;;;;;1.90;1.43;;;21.60;98.30;;;;;;5054446;28;20449;-58
2023/09/27 08:08:42;;;;;;;1.73;1.63;;;21.60;98.30;;;;;;5051590;28;21081;-55
2023/09/27 08:11:11;;;;;;;1.50;1.40;;;21.60;98.30;;;;;;5050213;28;20468;-54
2023/09/27 08:13:38;;;;;;;1.80;1.70;;;21.60;98.30;;;;;;5048881;28;21001;-51
2023/09/27 08:16:07;;;;;;;2.00;1.87;;;21.60;98.30;;;;;;5054466;28;20458;-53
2023/09/27 08:18:34;;;;;;;2.13;1.80;;;21.60;98.30;;;;;;5051064;28;20465;-55
2023/09/27 08:21:01;;;;;;;2.13;1.93;;;21.60;98.30;;;;;;5051546;28;20201;-54
2023/09/27 08:23:28;;;;;;;1.80;1.70;;;21.60;98.30;;;;;;5050589;28;20451;-56
2023/09/27 08:25:55;;;;;;;1.53;1.43;;;21.60;98.30;;;;;;5052822;28;20813;-55
2023/09/27 08:28:23;;;;;;;2.00;1.80;;;21.60;98.30;;;;;;5056710;28;20462;-57
2023/09/27 08:30:49;;;;;;;1.87;1.77;;;21.60;98.30;;;;;;5049364;28;20463;-51
2023/09/27 08:33:17;;;;;;;2.23;2.03;;;21.60;98.30;;;;;;5055706;28;20487;-55
2023/09/27 08:35:44;;;;;;;2.07;1.87;;;21.60;98.30;;;;;;5056697;28;21417;-54
2023/09/27 08:38:12;;;;;;;2.33;2.13;;;21.60;98.30;;;;;;5057232;28;20651;-50
2023/09/27 08:40:39;;;;;;;2.17;1.97;;;21.60;98.30;;;;;;5056140;28;20448;-49
2023/09/27 08:43:06;;;;;;;2.13;1.93;;;21.60;98.30;;;;;;5057090;28;20467;-54
2023/09/27 08:45:37;;;;;;;1.70;1.60;;;21.60;98.40;;;;;;5057055;28;20459;-58
2023/09/27 08:48:06;;;;;;;2.10;2.00;;;21.60;98.40;;;;;;5054293;28;20460;-50
2023/09/27 08:50:35;;;;;;;1.90;1.67;;;21.60;98.40;;;;;;5056313;28;20544;-52
2023/09/27 08:53:02;;;;;;;1.60;1.50;;;21.60;98.40;;;;;;5061143;28;20475;-52
2023/09/27 08:55:29;;;;;;;2.13;1.97;;;21.60;98.40;;;;;;5063042;28;21126;-54
2023/09/27 08:57:57;;;;;;;1.90;1.70;;;21.60;98.40;;;;;;5060823;28;21049;-53
2023/09/27 09:00:26;;;;;;;2.27;2.07;;;21.60;98.40;;;;;;5059979;28;20457;-51
2023/09/27 09:02:57;;;;;;;2.10;1.90;;;21.60;98.40;;;;;;5060398;28;21084;-50
2023/09/27 09:05:26;;;;;;;1.90;1.70;;;21.60;98.40;;;;;;5060191;28;20453;-55
2023/09/27 09:07:55;;;;;;;1.80;1.70;;;21.60;98.40;;;;;;5059304;28;20808;-56
2023/09/27 09:10:22;;;;;;;4.97;1.87;;;21.60;98.40;;;;;;5057049;28;20463;-55
2023/09/27 09:12:50;;;;;;;2.60;2.40;;;21.60;98.50;;;;;;5050757;28;20475;-53
2023/09/27 09:15:28;;;;;;;10.63;2.53;;;21.60;98.50;;;;;;5050446;28;20469;-56
2023/09/27 09:17:57;;;;;;;2.60;2.40;;;21.50;98.90;;;;;;5055276;28;21298;-54
2023/09/27 09:20:31;;;;;;;2.47;2.27;;;21.50;99.10;;;;;;5057219;28;20485;-54
2023/09/27 09:23:03;;;;;;;2.73;2.53;;;21.50;99.10;;;;;;5057236;28;20513;-56
2023/09/27 09:25:31;;;;;;;2.60;2.40;;;21.60;99.30;;;;;;5054406;28;20551;-53
2023/09/27 09:28:07;;;;;;;4.53;3.03;;;21.60;99.20;;;;;;5053607;28;20794;-52
2023/09/27 09:30:36;;;;;;;3.93;3.40;;;21.60;99.30;;;;;;5055761;28;20458;-58
2023/09/27 09:33:03;;;;;;;9.03;3.03;;;21.60;99.30;;;;;;5056415;28;21159;-55
2023/09/27 09:35:31;;;;;;;3.40;3.10;;;21.60;99.40;;;;;;5056707;28;20999;-49
2023/09/27 09:38:01;;;;;;;6.63;3.40;;;21.60;99.30;;;;;;5058769;28;20939;-56
2023/09/27 09:40:29;;;;;;;4.87;3.90;;;21.60;99.30;;;;;;5057206;28;20486;-53
2023/09/27 09:42:59;;;;;;;3.50;3.20;;;21.60;99.40;;;;;;5055405;28;20873;-55
2023/09/27 09:45:28;;;;;;;7.90;4.07;;;21.60;99.50;;;;;;5059276;28;20466;-54
2023/09/27 09:47:56;;;;;;;4.07;3.67;;;21.60;99.60;;;;;;5055842;28;20888;-52
2023/09/27 09:50:23;;;;;;;4.10;3.70;;;21.70;99.70;;;;;;5057276;28;20460;-52
2023/09/27 09:52:55;;;;;;;4.37;3.97;;;21.70;99.70;;;;;;5058412;28;20468;-55
2023/09/27 09:55:24;;;;;;;4.40;3.43;;;21.60;99.70;;;;;;5051646;28;20466;-51
2023/09/27 09:57:57;;;;;;;7.80;3.20;;;21.70;99.80;;;;;;5052971;28;20471;-51
2023/09/27 10:00:27;;;;;;;4.17;3.60;;;21.70;99.90;;;;;;5054046;28;21527;-52
2023/09/27 10:03:00;;;;;;;4.17;3.17;;;21.70;99.90;;;;;;5054334;28;20469;-52
2023/09/27 10:05:29;;;;;;;4.20;3.47;;;21.70;99.90;;;;;;5053419;28;20466;-50
2023/09/27 10:07:56;;;;;;;4.03;3.43;;;21.70;99.80;;;;;;5057869;28;20811;-51
2023/09/27 10:10:24;;;;;;;3.27;2.97;;;21.70;99.80;;;;;;5054749;28;20926;-49
2023/09/27 10:12:53;;;;;;;5.43;3.80;;;21.70;99.80;;;;;;5054614;28;20483;-52
2023/09/27 10:15:22;;;;;;;3.70;3.00;;;21.70;99.80;;;;;;5056627;28;21061;-51
2023/09/27 10:17:50;;;;;;;4.10;3.10;;;21.70;99.80;;;;;;5053183;28;20982;-51
2023/09/27 10:20:20;;;;;;;3.50;3.20;;;21.80;99.80;;;;;;5053786;28;20536;-51
2023/09/27 10:22:48;;;;;;;3.30;3.00;;;21.80;99.70;;;;;;5055511;28;20709;-53
2023/09/27 10:25:35;;;;;;;3.93;3.60;;;21.80;99.70;;;;;;5050141;28;20451;-56
2023/09/27 10:28:07;;;;;;;3.10;2.80;;;21.80;99.70;;;;;;5053221;28;20939;-49
2023/09/27 10:31:07;;;;;;;5.33;3.63;;;21.80;99.70;;;;;;5055153;28;20467;-54
2023/09/27 10:33:34;;;;;;;3.20;2.90;;;21.80;99.60;;;;;;5055265;28;20561;-52
2023/09/27 10:36:35;;;;;;;3.10;2.90;;;21.80;99.60;;;;;;5057303;28;20896;-51
2023/09/27 10:39:05;;;;;;;3.80;3.50;;;21.80;99.50;;;;;;4982951;28;20455;-54
2023/09/27 10:41:49;;;;;;;5.17;4.07;;;21.80;99.50;;;;;;4982743;28;20634;-49
2023/09/27 10:44:30;;;;;;;3.60;3.30;;;21.80;99.50;;;;;;5022635;28;20501;-53
2023/09/27 10:46:58;;;;;;;4.87;3.53;;;21.80;99.50;;;;;;5055734;28;20451;-53
2023/09/27 10:49:26;;;;;;;3.90;3.50;;;21.90;99.50;;;;;;5058096;28;20478;-52
2023/09/27 10:51:53;;;;;;;4.60;3.20;;;21.90;99.50;;;;;;5056419;28;20463;-50
2023/09/27 10:54:23;;;;;;;2.83;2.63;;;21.90;99.50;;;;;;5054989;28;20459;-53
2023/09/27 10:56:53;;;;;;;3.53;3.23;;;21.90;99.50;;;;;;5056223;28;20460;-61
2023/09/27 10:59:27;;;;;;;4.40;2.93;;;21.90;99.50;;;;;;5056646;28;21164;-57
2023/09/27 11:01:54;;;;;;;4.13;3.73;;;21.90;99.50;;;;;;5056196;28;20471;-53
2023/09/27 11:04:22;;;;;;;3.90;3.50;;;21.90;99.50;;;;;;5055642;28;20539;-52
2023/09/27 11:06:49;;;;;;;4.20;3.20;;;21.90;99.50;;;;;;5057424;28;20467;-55
2023/09/27 11:09:19;;;;;;;2.90;2.60;;;21.90;99.50;;;;;;5055279;28;20456;-53
2023/09/27 11:11:46;;;;;;;4.13;3.40;;;22.00;99.50;;;;;;5056932;28;20565;-56
2023/09/27 11:14:24;;;;;;;9.30;3.87;;;22.00;99.50;;;;;;5055662;28;20460;-54
2023/09/27 11:16:51;;;;;;;4.70;3.33;;;22.00;99.60;;;;;;5049050;28;20460;-56
2023/09/27 11:19:27;;;;;;;3.80;3.50;;;22.00;99.60;;;;;;5054119;28;20987;-49
2023/09/27 11:21:53;;;;;;;3.60;3.37;;;22.00;99.50;;;;;;5056651;28;20854;-46
2023/09/27 11:24:20;;;;;;;3.50;3.20;;;22.00;99.70;;;;;;5056619;28;20455;-56
2023/09/27 11:26:47;;;;;;;4.00;3.70;;;22.00;99.60;;;;;;5057941;28;20455;-59
2023/09/27 11:29:15;;;;;;;3.60;3.27;;;22.10;99.70;;;;;;5052892;28;20448;-55
2023/09/27 11:31:42;;;;;;;4.27;3.67;;;22.10;99.70;;;;;;5057791;28;20463;-46
2023/09/27 11:34:13;;;;;;;6.20;3.47;;;22.10;99.80;;;;;;5048935;28;20527;-56
2023/09/27 11:36:41;;;;;;;3.17;2.87;;;22.10;99.80;;;;;;5059246;28;20467;-46
2023/09/27 11:39:08;;;;;;;4.77;3.47;;;22.10;99.80;;;;;;5053885;28;20456;-51
2023/09/27 11:41:35;;;;;;;4.80;3.40;;;22.10;99.90;;;;;;5055477;28;20459;-58
2023/09/27 11:44:16;;;;;;;3.60;3.20;;;22.10;99.80;;;;;;5061463;28;21191;-51
2023/09/27 11:46:43;;;;;;;3.97;3.13;;;22.20;99.80;;;;;;5053468;28;20460;-53
2023/09/27 11:49:10;;;;;;;3.37;3.00;;;22.20;99.80;;;;;;5056538;28;20539;-49
2023/09/27 11:51:37;;;;;;;4.83;3.20;;;22.20;99.80;;;;;;5051891;28;20569;-48
2023/09/27 11:54:05;;;;;;;4.07;3.77;;;22.20;99.90;;;;;;5056757;28;21121;-58
2023/09/27 11:56:32;;;;;;;5.10;3.30;;;22.20;99.80;;;;;;5055357;28;20626;-49
2023/09/27 11:58:59;;;;;;;4.03;3.63;;;22.20;99.80;;;;;;5056766;28;20949;-54
2023/09/27 12:01:27;;;;;;;5.00;2.90;;;22.20;99.70;;;;;;5054382;28;20466;-50
2023/09/27 12:03:53;;;;;;;3.20;2.90;;;22.20;99.70;;;;;;5054693;28;21055;-51
2023/09/27 12:06:21;;;;;;;3.73;3.43;;;22.20;99.70;;;;;;5053457;28;20471;-49
2023/09/27 12:08:48;;;;;;;3.83;3.07;;;22.20;99.80;;;;;;5057741;28;21451;-54
2023/09/27 12:11:15;;;;;;;3.93;3.60;;;22.20;99.80;;;;;;5056012;28;20490;-52
2023/09/27 12:13:42;;;;;;;4.00;3.70;;;22.20;99.80;;;;;;5049942;28;20495;-60
2023/09/27 12:16:09;;;;;;;4.00;3.67;;;22.30;99.80;;;;;;5054341;28;20456;-54
2023/09/27 12:18:37;;;;;;;4.27;3.37;;;22.30;99.80;;;;;;5057335;28;20461;-58
2023/09/27 12:21:04;;;;;;;3.40;3.10;;;22.30;99.80;;;;;;5055051;28;21073;-58
2023/09/27 12:23:31;;;;;;;2.90;2.70;;;22.30;99.80;;;;;;5052279;28;20852;-55
2023/09/27 12:25:58;;;;;;;3.73;3.43;;;22.30;99.70;;;;;;5053820;28;20468;-53
2023/09/27 12:28:25;;;;;;;3.83;3.53;;;22.30;99.70;;;;;;5052492;28;20606;-51
2023/09/27 12:30:52;;;;;;;3.57;3.27;;;22.30;99.80;;;;;;5052522;28;20601;-51
2023/09/27 12:33:19;;;;;;;7.10;3.17;;;22.30;99.70;;;;;;5054527;28;20475;-55
2023/09/27 12:35:49;;;;;;;3.87;3.57;;;22.30;99.80;;;;;;5050985;28;20831;-55
2023/09/27 12:38:16;;;;;;;6.27;3.50;;;22.30;99.90;;;;;;5054509;28;20822;-52
2023/09/27 12:40:43;;;;;;;3.77;3.47;;;22.40;99.90;;;;;;5053520;28;20463;-52
2023/09/27 12:43:10;;;;;;;3.60;3.30;;;22.40;99.80;;;;;;5050147;28;20490;-59
2023/09/27 12:45:39;;;;;;;3.97;3.60;;;22.40;99.70;;;;;;5052482;28;21916;-57
2023/09/27 12:48:06;;;;;;;3.17;2.87;;;22.40;99.70;;;;;;5055993;28;20536;-50
2023/09/27 12:50:33;;;;;;;3.83;2.87;;;22.40;99.60;;;;;;5055896;28;20459;-58
2023/09/27 12:53:03;;;;;;;6.30;3.23;;;22.40;99.60;;;;;;5052999;28;20487;-57